sensor_id;sensor_type;location;lat;lon;timestamp;temperature;humidity
68977;SHT31;56029;52.568;13.588;2022-08-21T00:01:55;18.56;99.99
68977;SHT31;56029;52.568;13.588;2022-08-21T00:04:21;18.55;99.99
68977;SHT31;56029;52.568;13.588;2022-08-21T00:06:47;18.52;99.99
68977;SHT31;56029;52.568;13.588;2022-08-21T00:09:13;18.55;99.99
68977;SHT31;56029;52.568;13.588;2022-08-21T00:11:39;18.55;99.99
68977;SHT31;56029;52.568;13.588;2022-08-21T00:14:07;18.51;99.99
68977;SHT31;56029;52.568;13.588;2022-08-21T00:16:33;18.51;99.99
68977;SHT31;56029;52.568;13.588;2022-08-21T00:18:59;18.49;99.99
68977;SHT31;56029;52.568;13.588;2022-08-21T00:21:25;18.48;99.99
68977;SHT31;56029;52.568;13.588;2022-08-21T00:23:52;18.45;99.99
68977;SHT31;56029;52.568;13.588;2022-08-21T00:26:17;18.44;99.99
68977;SHT31;56029;52.568;13.588;2022-08-21T00:28:43;18.42;99.99
68977;SHT31;56029;52.568;13.588;2022-08-21T00:31:11;18.45;99.93
68977;SHT31;56029;52.568;13.588;2022-08-21T00:33:37;18.41;99.92
68977;SHT31;56029;52.568;13.588;2022-08-21T00:36:03;18.36;99.92
68977;SHT31;56029;52.568;13.588;2022-08-21T00:38:29;18.38;99.75
68977;SHT31;56029;52.568;13.588;2022-08-21T00:40:58;18.36;99.69
68977;SHT31;56029;52.568;13.588;2022-08-21T00:43:27;18.34;99.49
68977;SHT31;56029;52.568;13.588;2022-08-21T00:45:55;18.34;99.49
68977;SHT31;56029;52.568;13.588;2022-08-21T00:48:21;18.31;99.44
68977;SHT31;56029;52.568;13.588;2022-08-21T00:50:58;18.32;99.33
68977;SHT31;56029;52.568;13.588;2022-08-21T00:53:26;18.36;99.17
68977;SHT31;56029;52.568;13.588;2022-08-21T00:55:52;18.32;99.27
68977;SHT31;56029;52.568;13.588;2022-08-21T00:58:18;18.32;99.34
68977;SHT31;56029;52.568;13.588;2022-08-21T01:00:47;18.29;99.45
68977;SHT31;56029;52.568;13.588;2022-08-21T01:03:17;18.28;99.11
68977;SHT31;56029;52.568;13.588;2022-08-21T01:05:43;18.25;99.18
68977;SHT31;56029;52.568;13.588;2022-08-21T01:08:10;18.25;99.20
68977;SHT31;56029;52.568;13.588;2022-08-21T01:10:36;18.24;99.38
68977;SHT31;56029;52.568;13.588;2022-08-21T01:13:03;18.25;99.24
68977;SHT31;56029;52.568;13.588;2022-08-21T01:15:34;18.21;99.34
68977;SHT31;56029;52.568;13.588;2022-08-21T01:18:02;18.21;98.61
68977;SHT31;56029;52.568;13.588;2022-08-21T01:20:29;18.19;98.42
68977;SHT31;56029;52.568;13.588;2022-08-21T01:22:54;18.18;98.21
68977;SHT31;56029;52.568;13.588;2022-08-21T01:25:20;18.21;98.25
68977;SHT31;56029;52.568;13.588;2022-08-21T01:27:46;18.19;98.22
68977;SHT31;56029;52.568;13.588;2022-08-21T01:30:23;18.16;98.32
68977;SHT31;56029;52.568;13.588;2022-08-21T01:32:49;18.15;98.47
68977;SHT31;56029;52.568;13.588;2022-08-21T01:35:16;18.15;98.47
68977;SHT31;56029;52.568;13.588;2022-08-21T01:37:42;18.12;98.61
68977;SHT31;56029;52.568;13.588;2022-08-21T01:40:09;18.12;98.87
68977;SHT31;56029;52.568;13.588;2022-08-21T01:42:38;18.12;98.40
68977;SHT31;56029;52.568;13.588;2022-08-21T01:45:06;18.09;98.45
68977;SHT31;56029;52.568;13.588;2022-08-21T01:47:31;18.08;98.34
68977;SHT31;56029;52.568;13.588;2022-08-21T01:49:58;18.05;98.13
68977;SHT31;56029;52.568;13.588;2022-08-21T01:52:24;18.07;97.86
68977;SHT31;56029;52.568;13.588;2022-08-21T01:54:49;18.04;97.81
68977;SHT31;56029;52.568;13.588;2022-08-21T01:57:15;18.01;97.83
68977;SHT31;56029;52.568;13.588;2022-08-21T01:59:41;18.00;97.98
68977;SHT31;56029;52.568;13.588;2022-08-21T02:02:06;17.95;98.19
68977;SHT31;56029;52.568;13.588;2022-08-21T02:04:32;17.95;98.14
68977;SHT31;56029;52.568;13.588;2022-08-21T02:07:00;17.94;98.15
68977;SHT31;56029;52.568;13.588;2022-08-21T02:09:26;17.90;98.17
68977;SHT31;56029;52.568;13.588;2022-08-21T02:11:52;17.86;98.10
68977;SHT31;56029;52.568;13.588;2022-08-21T02:14:18;17.84;97.18
68977;SHT31;56029;52.568;13.588;2022-08-21T02:16:44;17.87;97.14
68977;SHT31;56029;52.568;13.588;2022-08-21T02:19:12;17.83;97.14
68977;SHT31;56029;52.568;13.588;2022-08-21T02:21:39;17.78;96.81
68977;SHT31;56029;52.568;13.588;2022-08-21T02:24:05;17.76;97.00
68977;SHT31;56029;52.568;13.588;2022-08-21T02:26:31;17.71;97.39
68977;SHT31;56029;52.568;13.588;2022-08-21T02:28:57;17.69;97.65
68977;SHT31;56029;52.568;13.588;2022-08-21T02:31:23;17.62;97.97
68977;SHT31;56029;52.568;13.588;2022-08-21T02:33:50;17.60;98.19
68977;SHT31;56029;52.568;13.588;2022-08-21T02:36:16;17.53;98.01
68977;SHT31;56029;52.568;13.588;2022-08-21T02:38:42;17.50;98.25
68977;SHT31;56029;52.568;13.588;2022-08-21T02:41:14;17.47;98.34
68977;SHT31;56029;52.568;13.588;2022-08-21T02:43:40;17.43;98.18
68977;SHT31;56029;52.568;13.588;2022-08-21T02:46:07;17.40;98.42
68977;SHT31;56029;52.568;13.588;2022-08-21T02:48:34;17.37;98.41
68977;SHT31;56029;52.568;13.588;2022-08-21T02:53:30;17.32;98.52
68977;SHT31;56029;52.568;13.588;2022-08-21T02:55:58;17.26;98.44
68977;SHT31;56029;52.568;13.588;2022-08-21T02:58:29;17.23;98.45
68977;SHT31;56029;52.568;13.588;2022-08-21T03:00:56;17.23;98.41
68977;SHT31;56029;52.568;13.588;2022-08-21T03:03:24;17.18;98.56
68977;SHT31;56029;52.568;13.588;2022-08-21T03:05:50;17.19;98.43
68977;SHT31;56029;52.568;13.588;2022-08-21T03:08:17;17.14;98.43
68977;SHT31;56029;52.568;13.588;2022-08-21T03:10:50;17.09;98.54
68977;SHT31;56029;52.568;13.588;2022-08-21T03:13:17;17.04;98.48
68977;SHT31;56029;52.568;13.588;2022-08-21T03:15:43;17.04;98.27
68977;SHT31;56029;52.568;13.588;2022-08-21T03:18:11;17.02;98.38
68977;SHT31;56029;52.568;13.588;2022-08-21T03:20:38;16.98;98.70
68977;SHT31;56029;52.568;13.588;2022-08-21T03:23:05;16.96;98.64
68977;SHT31;56029;52.568;13.588;2022-08-21T03:25:32;16.91;98.88
68977;SHT31;56029;52.568;13.588;2022-08-21T03:27:59;16.91;98.96
68977;SHT31;56029;52.568;13.588;2022-08-21T03:30:25;16.84;99.28
68977;SHT31;56029;52.568;13.588;2022-08-21T03:32:51;16.81;99.27
68977;SHT31;56029;52.568;13.588;2022-08-21T03:35:17;16.77;99.43
68977;SHT31;56029;52.568;13.588;2022-08-21T03:37:44;16.72;99.46
68977;SHT31;56029;52.568;13.588;2022-08-21T03:40:11;16.71;99.63
68977;SHT31;56029;52.568;13.588;2022-08-21T03:42:38;16.65;99.47
68977;SHT31;56029;52.568;13.588;2022-08-21T03:45:05;16.65;98.98
68977;SHT31;56029;52.568;13.588;2022-08-21T03:47:31;16.65;98.42
68977;SHT31;56029;52.568;13.588;2022-08-21T03:49:57;16.60;98.54
68977;SHT31;56029;52.568;13.588;2022-08-21T03:52:22;16.60;98.50
68977;SHT31;56029;52.568;13.588;2022-08-21T03:54:49;16.57;98.35
68977;SHT31;56029;52.568;13.588;2022-08-21T03:57:15;16.54;98.47
68977;SHT31;56029;52.568;13.588;2022-08-21T03:59:41;16.54;98.33
68977;SHT31;56029;52.568;13.588;2022-08-21T04:02:09;16.53;98.47
68977;SHT31;56029;52.568;13.588;2022-08-21T04:04:35;16.47;98.23
68977;SHT31;56029;52.568;13.588;2022-08-21T04:07:01;16.46;98.36
68977;SHT31;56029;52.568;13.588;2022-08-21T04:09:28;16.43;98.43
68977;SHT31;56029;52.568;13.588;2022-08-21T04:11:53;16.43;98.32
68977;SHT31;56029;52.568;13.588;2022-08-21T04:14:19;16.40;98.16
68977;SHT31;56029;52.568;13.588;2022-08-21T04:16:45;16.37;98.18
68977;SHT31;56029;52.568;13.588;2022-08-21T04:19:12;16.39;97.96
68977;SHT31;56029;52.568;13.588;2022-08-21T04:21:42;16.36;97.70
68977;SHT31;56029;52.568;13.588;2022-08-21T04:24:08;16.34;97.60
68977;SHT31;56029;52.568;13.588;2022-08-21T04:26:36;16.37;97.69
68977;SHT31;56029;52.568;13.588;2022-08-21T04:29:03;16.31;97.52
68977;SHT31;56029;52.568;13.588;2022-08-21T04:31:32;16.30;97.49
68977;SHT31;56029;52.568;13.588;2022-08-21T04:33:59;16.30;97.79
68977;SHT31;56029;52.568;13.588;2022-08-21T04:36:25;16.27;97.79
68977;SHT31;56029;52.568;13.588;2022-08-21T04:38:51;16.26;97.97
68977;SHT31;56029;52.568;13.588;2022-08-21T04:41:17;16.30;97.72
68977;SHT31;56029;52.568;13.588;2022-08-21T04:43:42;16.31;97.86
68977;SHT31;56029;52.568;13.588;2022-08-21T04:46:08;16.27;97.93
68977;SHT31;56029;52.568;13.588;2022-08-21T04:48:34;16.27;97.78
68977;SHT31;56029;52.568;13.588;2022-08-21T04:56:03;16.27;97.59
68977;SHT31;56029;52.568;13.588;2022-08-21T04:58:30;16.24;97.76
68977;SHT31;56029;52.568;13.588;2022-08-21T05:00:57;16.27;97.80
68977;SHT31;56029;52.568;13.588;2022-08-21T05:03:23;16.24;97.63
68977;SHT31;56029;52.568;13.588;2022-08-21T05:05:50;16.31;97.23
68977;SHT31;56029;52.568;13.588;2022-08-21T05:08:18;16.30;97.28
68977;SHT31;56029;52.568;13.588;2022-08-21T05:10:44;16.37;97.32
68977;SHT31;56029;52.568;13.588;2022-08-21T05:13:12;16.37;97.18
68977;SHT31;56029;52.568;13.588;2022-08-21T05:15:38;16.39;96.70
68977;SHT31;56029;52.568;13.588;2022-08-21T05:18:04;16.40;96.54
68977;SHT31;56029;52.568;13.588;2022-08-21T05:20:30;16.36;96.18
68977;SHT31;56029;52.568;13.588;2022-08-21T05:22:56;16.37;96.62
68977;SHT31;56029;52.568;13.588;2022-08-21T05:25:21;16.37;96.15
68977;SHT31;56029;52.568;13.588;2022-08-21T05:27:47;16.43;96.36
68977;SHT31;56029;52.568;13.588;2022-08-21T05:30:13;16.41;96.16
68977;SHT31;56029;52.568;13.588;2022-08-21T05:32:39;16.44;95.94
68977;SHT31;56029;52.568;13.588;2022-08-21T05:35:05;16.49;95.20
68977;SHT31;56029;52.568;13.588;2022-08-21T05:37:32;16.47;95.51
68977;SHT31;56029;52.568;13.588;2022-08-21T05:39:59;16.46;95.31
68977;SHT31;56029;52.568;13.588;2022-08-21T05:42:25;16.49;95.38
68977;SHT31;56029;52.568;13.588;2022-08-21T05:44:50;16.49;94.48
68977;SHT31;56029;52.568;13.588;2022-08-21T05:47:16;16.53;95.28
68977;SHT31;56029;52.568;13.588;2022-08-21T05:49:41;16.56;94.97
68977;SHT31;56029;52.568;13.588;2022-08-21T05:52:07;16.54;94.88
68977;SHT31;56029;52.568;13.588;2022-08-21T05:54:36;16.58;94.69
68977;SHT31;56029;52.568;13.588;2022-08-21T05:57:02;16.64;94.85
68977;SHT31;56029;52.568;13.588;2022-08-21T05:59:27;16.58;94.87
68977;SHT31;56029;52.568;13.588;2022-08-21T06:01:53;16.64;95.03
68977;SHT31;56029;52.568;13.588;2022-08-21T06:04:19;16.70;94.34
68977;SHT31;56029;52.568;13.588;2022-08-21T06:06:45;16.71;94.49
68977;SHT31;56029;52.568;13.588;2022-08-21T06:09:10;16.68;94.43
68977;SHT31;56029;52.568;13.588;2022-08-21T06:11:36;16.70;94.43
68977;SHT31;56029;52.568;13.588;2022-08-21T06:14:02;16.70;94.07
68977;SHT31;56029;52.568;13.588;2022-08-21T06:16:28;16.75;94.48
68977;SHT31;56029;52.568;13.588;2022-08-21T06:18:54;16.82;93.74
68977;SHT31;56029;52.568;13.588;2022-08-21T06:21:19;16.84;93.77
68977;SHT31;56029;52.568;13.588;2022-08-21T06:23:45;16.88;93.26
68977;SHT31;56029;52.568;13.588;2022-08-21T06:26:13;16.87;93.13
68977;SHT31;56029;52.568;13.588;2022-08-21T06:28:39;16.92;93.13
68977;SHT31;56029;52.568;13.588;2022-08-21T06:31:16;17.02;92.81
68977;SHT31;56029;52.568;13.588;2022-08-21T06:33:42;17.07;92.84
68977;SHT31;56029;52.568;13.588;2022-08-21T06:36:08;17.12;92.42
68977;SHT31;56029;52.568;13.588;2022-08-21T06:38:35;17.15;91.69
68977;SHT31;56029;52.568;13.588;2022-08-21T06:41:00;17.23;92.58
68977;SHT31;56029;52.568;13.588;2022-08-21T06:43:26;17.25;92.42
68977;SHT31;56029;52.568;13.588;2022-08-21T06:45:52;17.29;92.20
68977;SHT31;56029;52.568;13.588;2022-08-21T06:48:18;17.36;91.82
68977;SHT31;56029;52.568;13.588;2022-08-21T06:50:44;17.37;90.68
68977;SHT31;56029;52.568;13.588;2022-08-21T06:53:13;17.35;90.56
68977;SHT31;56029;52.568;13.588;2022-08-21T06:55:40;17.39;90.57
68977;SHT31;56029;52.568;13.588;2022-08-21T06:58:07;17.37;89.66
68977;SHT31;56029;52.568;13.588;2022-08-21T07:00:34;17.53;90.82
68977;SHT31;56029;52.568;13.588;2022-08-21T07:03:00;17.56;90.31
68977;SHT31;56029;52.568;13.588;2022-08-21T07:05:28;17.62;89.83
68977;SHT31;56029;52.568;13.588;2022-08-21T07:07:54;17.66;88.99
68977;SHT31;56029;52.568;13.588;2022-08-21T07:10:20;17.73;89.33
68977;SHT31;56029;52.568;13.588;2022-08-21T07:12:45;17.78;88.61
68977;SHT31;56029;52.568;13.588;2022-08-21T07:15:11;17.76;88.16
68977;SHT31;56029;52.568;13.588;2022-08-21T07:17:37;17.83;88.34
68977;SHT31;56029;52.568;13.588;2022-08-21T07:20:03;17.87;88.18
68977;SHT31;56029;52.568;13.588;2022-08-21T07:22:29;17.88;87.57
68977;SHT31;56029;52.568;13.588;2022-08-21T07:24:55;18.01;88.14
68977;SHT31;56029;52.568;13.588;2022-08-21T07:27:20;18.16;88.01
68977;SHT31;56029;52.568;13.588;2022-08-21T07:29:46;18.26;87.01
68977;SHT31;56029;52.568;13.588;2022-08-21T07:32:12;18.34;85.30
68977;SHT31;56029;52.568;13.588;2022-08-21T07:34:37;18.36;85.87
68977;SHT31;56029;52.568;13.588;2022-08-21T07:37:03;18.41;85.17
68977;SHT31;56029;52.568;13.588;2022-08-21T07:39:28;18.46;86.10
68977;SHT31;56029;52.568;13.588;2022-08-21T07:41:54;18.51;84.98
68977;SHT31;56029;52.568;13.588;2022-08-21T07:44:19;18.62;84.54
68977;SHT31;56029;52.568;13.588;2022-08-21T07:46:45;18.63;84.47
68977;SHT31;56029;52.568;13.588;2022-08-21T07:49:10;18.62;84.30
68977;SHT31;56029;52.568;13.588;2022-08-21T07:51:36;18.74;84.24
68977;SHT31;56029;52.568;13.588;2022-08-21T07:54:02;18.77;83.09
68977;SHT31;56029;52.568;13.588;2022-08-21T07:56:29;18.79;82.69
68977;SHT31;56029;52.568;13.588;2022-08-21T07:58:56;18.86;82.97
68977;SHT31;56029;52.568;13.588;2022-08-21T08:01:23;19.00;82.84
68977;SHT31;56029;52.568;13.588;2022-08-21T08:03:49;19.03;82.35
68977;SHT31;56029;52.568;13.588;2022-08-21T08:06:15;19.06;80.01
68977;SHT31;56029;52.568;13.588;2022-08-21T08:08:42;19.08;81.25
68977;SHT31;56029;52.568;13.588;2022-08-21T08:11:09;19.14;79.50
68977;SHT31;56029;52.568;13.588;2022-08-21T08:13:46;19.18;79.69
68977;SHT31;56029;52.568;13.588;2022-08-21T08:16:13;19.24;79.58
68977;SHT31;56029;52.568;13.588;2022-08-21T08:18:38;19.32;78.93
68977;SHT31;56029;52.568;13.588;2022-08-21T08:21:04;19.52;78.44
68977;SHT31;56029;52.568;13.588;2022-08-21T08:23:31;19.58;76.06
68977;SHT31;56029;52.568;13.588;2022-08-21T08:25:58;19.71;78.26
68977;SHT31;56029;52.568;13.588;2022-08-21T08:28:24;19.71;76.27
68977;SHT31;56029;52.568;13.588;2022-08-21T08:30:50;19.72;76.54
68977;SHT31;56029;52.568;13.588;2022-08-21T08:33:16;19.79;76.30
68977;SHT31;56029;52.568;13.588;2022-08-21T08:35:47;19.96;77.50
68977;SHT31;56029;52.568;13.588;2022-08-21T08:38:14;19.92;75.35
68977;SHT31;56029;52.568;13.588;2022-08-21T08:41:31;20.00;75.92
68977;SHT31;56029;52.568;13.588;2022-08-21T08:43:39;20.05;75.52
68977;SHT31;56029;52.568;13.588;2022-08-21T08:46:12;19.94;74.12
68977;SHT31;56029;52.568;13.588;2022-08-21T08:48:51;20.03;74.14
68977;SHT31;56029;52.568;13.588;2022-08-21T08:51:34;20.16;75.94
68977;SHT31;56029;52.568;13.588;2022-08-21T08:54:07;20.14;73.36
68977;SHT31;56029;52.568;13.588;2022-08-21T08:56:36;20.12;73.09
68977;SHT31;56029;52.568;13.588;2022-08-21T08:59:15;20.19;72.79
68977;SHT31;56029;52.568;13.588;2022-08-21T09:01:42;20.29;73.26
68977;SHT31;56029;52.568;13.588;2022-08-21T09:04:09;20.34;73.12
68977;SHT31;56029;52.568;13.588;2022-08-21T09:06:48;20.47;71.78
68977;SHT31;56029;52.568;13.588;2022-08-21T09:09:38;20.45;72.26
68977;SHT31;56029;52.568;13.588;2022-08-21T09:12:39;20.45;71.74
68977;SHT31;56029;52.568;13.588;2022-08-21T09:18:06;20.79;72.21
68977;SHT31;56029;52.568;13.588;2022-08-21T09:21:05;20.72;71.24
68977;SHT31;56029;52.568;13.588;2022-08-21T09:26:15;20.79;70.95
68977;SHT31;56029;52.568;13.588;2022-08-21T09:28:42;20.81;70.69
68977;SHT31;56029;52.568;13.588;2022-08-21T09:31:30;20.96;69.32
68977;SHT31;56029;52.568;13.588;2022-08-21T09:33:59;21.16;69.43
68977;SHT31;56029;52.568;13.588;2022-08-21T09:36:38;21.15;69.65
68977;SHT31;56029;52.568;13.588;2022-08-21T09:39:05;21.16;66.31
68977;SHT31;56029;52.568;13.588;2022-08-21T09:41:33;21.16;65.42
68977;SHT31;56029;52.568;13.588;2022-08-21T09:44:01;21.16;65.97
68977;SHT31;56029;52.568;13.588;2022-08-21T09:46:27;21.16;65.89
68977;SHT31;56029;52.568;13.588;2022-08-21T09:48:55;21.18;65.35
68977;SHT31;56029;52.568;13.588;2022-08-21T09:51:33;21.22;64.68
68977;SHT31;56029;52.568;13.588;2022-08-21T09:54:17;21.29;64.75
68977;SHT31;56029;52.568;13.588;2022-08-21T09:56:56;21.46;65.15
68977;SHT31;56029;52.568;13.588;2022-08-21T09:59:41;21.46;64.88
68977;SHT31;56029;52.568;13.588;2022-08-21T10:02:22;21.35;64.37
68977;SHT31;56029;52.568;13.588;2022-08-21T10:04:54;21.50;64.61
68977;SHT31;56029;52.568;13.588;2022-08-21T10:07:22;21.57;65.16
68977;SHT31;56029;52.568;13.588;2022-08-21T10:10:08;21.60;64.75
68977;SHT31;56029;52.568;13.588;2022-08-21T10:15:18;21.54;65.04
68977;SHT31;56029;52.568;13.588;2022-08-21T10:17:52;21.57;64.73
68977;SHT31;56029;52.568;13.588;2022-08-21T10:20:23;21.60;63.75
68977;SHT31;56029;52.568;13.588;2022-08-21T10:23:28;21.73;65.46
68977;SHT31;56029;52.568;13.588;2022-08-21T10:29:02;21.84;64.58
68977;SHT31;56029;52.568;13.588;2022-08-21T10:34:23;21.84;63.28
68977;SHT31;56029;52.568;13.588;2022-08-21T10:37:01;21.81;63.45
68977;SHT31;56029;52.568;13.588;2022-08-21T10:39:35;21.73;62.92
68977;SHT31;56029;52.568;13.588;2022-08-21T10:42:17;21.85;62.73
68977;SHT31;56029;52.568;13.588;2022-08-21T10:47:57;21.71;63.04
68977;SHT31;56029;52.568;13.588;2022-08-21T10:50:38;21.85;63.53
68977;SHT31;56029;52.568;13.588;2022-08-21T10:53:32;21.91;63.15
68977;SHT31;56029;52.568;13.588;2022-08-21T10:56:20;21.94;61.10
68977;SHT31;56029;52.568;13.588;2022-08-21T11:01:25;21.95;59.22
68977;SHT31;56029;52.568;13.588;2022-08-21T11:06:41;21.97;58.75
68977;SHT31;56029;52.568;13.588;2022-08-21T11:09:13;22.08;58.57
68977;SHT31;56029;52.568;13.588;2022-08-21T11:11:46;22.06;58.37
68977;SHT31;56029;52.568;13.588;2022-08-21T11:14:25;22.09;59.90
68977;SHT31;56029;52.568;13.588;2022-08-21T11:17:05;22.19;60.12
68977;SHT31;56029;52.568;13.588;2022-08-21T11:19:42;22.33;58.38
68977;SHT31;56029;52.568;13.588;2022-08-21T11:22:33;22.38;57.59
68977;SHT31;56029;52.568;13.588;2022-08-21T11:25:13;22.43;58.50
68977;SHT31;56029;52.568;13.588;2022-08-21T11:30:17;22.14;58.10
68977;SHT31;56029;52.568;13.588;2022-08-21T11:32:53;22.19;59.47
68977;SHT31;56029;52.568;13.588;2022-08-21T11:35:39;22.35;56.90
68977;SHT31;56029;52.568;13.588;2022-08-21T11:51:58;22.51;56.98
68977;SHT31;56029;52.568;13.588;2022-08-21T11:54:36;22.66;57.59
68977;SHT31;56029;52.568;13.588;2022-08-21T11:57:08;22.45;57.69
68977;SHT31;56029;52.568;13.588;2022-08-21T11:59:47;22.43;57.92
68977;SHT31;56029;52.568;13.588;2022-08-21T12:02:17;22.66;58.05
68977;SHT31;56029;52.568;13.588;2022-08-21T12:04:50;22.77;57.64
68977;SHT31;56029;52.568;13.588;2022-08-21T12:09:58;22.86;58.83
68977;SHT31;56029;52.568;13.588;2022-08-21T12:12:32;22.86;56.69
68977;SHT31;56029;52.568;13.588;2022-08-21T12:17:57;22.82;58.35
68977;SHT31;56029;52.568;13.588;2022-08-21T12:23:16;22.97;58.76
68977;SHT31;56029;52.568;13.588;2022-08-21T12:25:46;22.90;57.02
68977;SHT31;56029;52.568;13.588;2022-08-21T12:28:21;22.94;56.46
68977;SHT31;56029;52.568;13.588;2022-08-21T12:30:47;22.69;54.82
68977;SHT31;56029;52.568;13.588;2022-08-21T12:33:29;22.70;55.27
68977;SHT31;56029;52.568;13.588;2022-08-21T12:36:23;22.72;53.62
68977;SHT31;56029;52.568;13.588;2022-08-21T12:39:01;22.72;54.82
68977;SHT31;56029;52.568;13.588;2022-08-21T12:41:32;22.70;55.98
68977;SHT31;56029;52.568;13.588;2022-08-21T12:44:04;22.76;53.22
68977;SHT31;56029;52.568;13.588;2022-08-21T12:46:54;22.77;51.98
68977;SHT31;56029;52.568;13.588;2022-08-21T12:49:36;22.89;52.87
68977;SHT31;56029;52.568;13.588;2022-08-21T12:52:06;22.87;51.94
68977;SHT31;56029;52.568;13.588;2022-08-21T12:54:40;22.87;51.37
68977;SHT31;56029;52.568;13.588;2022-08-21T12:57:16;23.01;51.41
68977;SHT31;56029;52.568;13.588;2022-08-21T12:59:42;23.03;52.89
68977;SHT31;56029;52.568;13.588;2022-08-21T13:02:19;22.96;52.10
68977;SHT31;56029;52.568;13.588;2022-08-21T13:04:48;23.07;50.70
68977;SHT31;56029;52.568;13.588;2022-08-21T13:07:19;23.08;51.16
68977;SHT31;56029;52.568;13.588;2022-08-21T13:09:50;23.24;51.67
68977;SHT31;56029;52.568;13.588;2022-08-21T13:12:17;23.34;50.09
68977;SHT31;56029;52.568;13.588;2022-08-21T13:14:45;23.38;48.80
68977;SHT31;56029;52.568;13.588;2022-08-21T13:17:18;23.31;48.73
68977;SHT31;56029;52.568;13.588;2022-08-21T13:19:57;23.42;49.03
68977;SHT31;56029;52.568;13.588;2022-08-21T13:22:24;23.47;49.74
68977;SHT31;56029;52.568;13.588;2022-08-21T13:24:50;23.52;49.19
68977;SHT31;56029;52.568;13.588;2022-08-21T13:27:19;23.70;49.85
68977;SHT31;56029;52.568;13.588;2022-08-21T13:29:45;23.65;47.01
68977;SHT31;56029;52.568;13.588;2022-08-21T13:32:20;23.72;48.76
68977;SHT31;56029;52.568;13.588;2022-08-21T13:34:47;23.75;48.59
68977;SHT31;56029;52.568;13.588;2022-08-21T13:37:13;23.88;48.59
68977;SHT31;56029;52.568;13.588;2022-08-21T13:39:40;23.99;48.81
68977;SHT31;56029;52.568;13.588;2022-08-21T13:42:11;24.09;46.45
68977;SHT31;56029;52.568;13.588;2022-08-21T13:44:43;24.03;47.59
68977;SHT31;56029;52.568;13.588;2022-08-21T13:47:12;24.02;46.86
68977;SHT31;56029;52.568;13.588;2022-08-21T13:49:47;23.92;45.69
68977;SHT31;56029;52.568;13.588;2022-08-21T13:52:16;23.79;46.48
68977;SHT31;56029;52.568;13.588;2022-08-21T13:54:43;23.82;45.21
68977;SHT31;56029;52.568;13.588;2022-08-21T13:57:25;23.89;46.31
68977;SHT31;56029;52.568;13.588;2022-08-21T13:59:51;23.92;45.95
68977;SHT31;56029;52.568;13.588;2022-08-21T14:02:23;23.86;46.20
68977;SHT31;56029;52.568;13.588;2022-08-21T14:04:58;23.89;46.42
68977;SHT31;56029;52.568;13.588;2022-08-21T14:07:26;24.02;47.15
68977;SHT31;56029;52.568;13.588;2022-08-21T14:09:53;24.02;45.12
68977;SHT31;56029;52.568;13.588;2022-08-21T14:12:29;24.12;45.74
68977;SHT31;56029;52.568;13.588;2022-08-21T14:15:02;24.20;46.51
68977;SHT31;56029;52.568;13.588;2022-08-21T14:17:35;24.40;47.06
68977;SHT31;56029;52.568;13.588;2022-08-21T14:20:05;24.43;46.26
68977;SHT31;56029;52.568;13.588;2022-08-21T14:22:43;24.51;46.06
68977;SHT31;56029;52.568;13.588;2022-08-21T14:30:19;24.60;45.55
68977;SHT31;56029;52.568;13.588;2022-08-21T14:32:46;24.69;45.39
68977;SHT31;56029;52.568;13.588;2022-08-21T14:35:13;24.38;45.13
68977;SHT31;56029;52.568;13.588;2022-08-21T14:37:43;24.20;45.06
68977;SHT31;56029;52.568;13.588;2022-08-21T14:40:09;24.12;45.97
68977;SHT31;56029;52.568;13.588;2022-08-21T14:42:35;24.12;46.00
68977;SHT31;56029;52.568;13.588;2022-08-21T14:45:07;24.26;48.42
68977;SHT31;56029;52.568;13.588;2022-08-21T14:47:36;24.07;46.70
68977;SHT31;56029;52.568;13.588;2022-08-21T14:50:03;23.96;47.42
68977;SHT31;56029;52.568;13.588;2022-08-21T14:52:28;23.88;46.97
68977;SHT31;56029;52.568;13.588;2022-08-21T14:54:54;23.85;47.13
68977;SHT31;56029;52.568;13.588;2022-08-21T14:57:19;23.79;47.58
68977;SHT31;56029;52.568;13.588;2022-08-21T14:59:45;23.79;48.55
68977;SHT31;56029;52.568;13.588;2022-08-21T15:02:11;23.68;47.57
68977;SHT31;56029;52.568;13.588;2022-08-21T15:04:37;23.65;47.82
68977;SHT31;56029;52.568;13.588;2022-08-21T15:07:03;23.69;48.50
68977;SHT31;56029;52.568;13.588;2022-08-21T15:09:29;23.68;47.08
68977;SHT31;56029;52.568;13.588;2022-08-21T15:11:56;23.69;48.24
68977;SHT31;56029;52.568;13.588;2022-08-21T15:14:27;23.72;49.27
68977;SHT31;56029;52.568;13.588;2022-08-21T15:16:53;23.68;47.04
68977;SHT31;56029;52.568;13.588;2022-08-21T15:19:19;23.75;49.83
68977;SHT31;56029;52.568;13.588;2022-08-21T15:21:44;23.70;48.67
68977;SHT31;56029;52.568;13.588;2022-08-21T15:24:10;23.69;49.38
68977;SHT31;56029;52.568;13.588;2022-08-21T15:26:36;23.63;48.66
68977;SHT31;56029;52.568;13.588;2022-08-21T15:29:02;23.65;48.52
68977;SHT31;56029;52.568;13.588;2022-08-21T15:31:29;23.61;48.35
68977;SHT31;56029;52.568;13.588;2022-08-21T15:33:55;23.52;48.72
68977;SHT31;56029;52.568;13.588;2022-08-21T15:36:21;23.52;49.34
68977;SHT31;56029;52.568;13.588;2022-08-21T15:38:46;23.48;50.79
68977;SHT31;56029;52.568;13.588;2022-08-21T15:41:13;23.52;49.25
68977;SHT31;56029;52.568;13.588;2022-08-21T15:43:48;23.48;50.49
68977;SHT31;56029;52.568;13.588;2022-08-21T15:46:16;23.44;50.53
68977;SHT31;56029;52.568;13.588;2022-08-21T15:48:42;23.44;51.00
68977;SHT31;56029;52.568;13.588;2022-08-21T15:51:10;23.40;51.52
68977;SHT31;56029;52.568;13.588;2022-08-21T15:53:36;23.38;50.20
68977;SHT31;56029;52.568;13.588;2022-08-21T15:56:26;23.30;50.18
68977;SHT31;56029;52.568;13.588;2022-08-21T15:58:52;23.30;51.06
68977;SHT31;56029;52.568;13.588;2022-08-21T16:01:20;23.28;51.74
68977;SHT31;56029;52.568;13.588;2022-08-21T16:03:48;23.18;51.08
68977;SHT31;56029;52.568;13.588;2022-08-21T16:06:15;23.18;51.59
68977;SHT31;56029;52.568;13.588;2022-08-21T16:08:40;23.08;51.60
68977;SHT31;56029;52.568;13.588;2022-08-21T16:11:06;22.99;51.96
68977;SHT31;56029;52.568;13.588;2022-08-21T16:13:36;22.91;52.26
68977;SHT31;56029;52.568;13.588;2022-08-21T16:16:04;22.90;53.77
68977;SHT31;56029;52.568;13.588;2022-08-21T16:18:31;22.84;53.83
68977;SHT31;56029;52.568;13.588;2022-08-21T16:20:57;22.72;54.38
68977;SHT31;56029;52.568;13.588;2022-08-21T16:23:22;22.63;54.60
68977;SHT31;56029;52.568;13.588;2022-08-21T16:25:48;22.57;56.40
68977;SHT31;56029;52.568;13.588;2022-08-21T16:28:15;22.53;56.10